Time;durP1;ratioP1;P1;durP2;ratioP2;P2;SDS_P1;SDS_P2;PMS_P1;PMS_P2;Temp;Humidity;BMP_temperature;BMP_pressure;BME280_temperature;BME280_humidity;BME280_pressure;Samples;Min_cycle;Max_cycle;Signal;HPM_P1;HPM_P2
2024/04/06 00:00:49;;;;;;;2.03;1.00;;;;;;;14.65;91.82;100489.47;5007307;28;20225;-75
2024/04/06 00:03:15;;;;;;;2.17;0.90;;;;;;;14.68;91.78;100498.13;5007351;28;20209;-74
2024/04/06 00:05:41;;;;;;;2.07;0.90;;;;;;;14.70;91.96;100490.78;5002595;28;20705;-74
2024/04/06 00:08:07;;;;;;;1.63;1.43;;;;;;;14.75;91.96;100482.34;5006923;28;20296;-75
2024/04/06 00:10:33;;;;;;;2.13;0.90;;;;;;;14.76;92.05;100473.34;5005287;28;20239;-75
2024/04/06 00:13:00;;;;;;;2.90;1.17;;;;;;;14.80;91.96;100480.16;5006496;28;20212;-75
2024/04/06 00:15:25;;;;;;;2.67;0.80;;;;;;;14.82;91.69;100475.50;5005624;28;20219;-75
2024/04/06 00:17:53;;;;;;;1.10;0.90;;;;;;;14.82;91.47;100476.38;5004792;28;20206;-75
2024/04/06 00:20:19;;;;;;;1.90;0.80;;;;;;;14.83;91.55;100474.53;5024053;22;20241;-84
2024/04/06 00:22:46;;;;;;;4.23;1.00;;;;;;;14.84;91.30;100476.25;5029123;28;20226;-83
2024/04/06 00:25:12;;;;;;;2.40;1.20;;;;;;;14.84;91.19;100485.13;5030271;28;20242;-84
2024/04/06 00:27:52;;;;;;;4.10;1.50;;;;;;;14.85;91.47;100483.31;5027707;28;20207;-84
2024/04/06 00:30:18;;;;;;;2.27;1.27;;;;;;;14.82;91.06;100486.25;5034747;28;20278;-85
2024/04/06 00:32:45;;;;;;;2.83;1.20;;;;;;;14.80;91.27;100494.41;5027558;28;20206;-84
2024/04/06 00:35:15;;;;;;;4.03;1.67;;;;;;;14.82;91.38;100491.59;5039460;28;20207;-84
2024/04/06 00:37:42;;;;;;;2.17;1.10;;;;;;;14.82;91.47;100505.00;5033393;28;20282;-84
2024/04/06 00:40:11;;;;;;;1.70;1.07;;;;;;;14.80;91.37;100512.31;5042110;28;20673;-84
2024/04/06 00:42:38;;;;;;;1.10;1.00;;;;;;;14.76;91.41;100511.72;5031415;28;20205;-83
2024/04/06 00:45:10;;;;;;;2.47;1.07;;;;;;;14.76;91.84;100513.56;5034012;28;20632;-84
2024/04/06 00:47:37;;;;;;;2.93;1.23;;;;;;;14.74;91.78;100516.34;5036439;28;20213;-79
2024/04/06 00:50:05;;;;;;;6.13;1.03;;;;;;;14.71;92.28;100519.28;5036736;28;20254;-79
2024/04/06 00:52:34;;;;;;;1.60;0.90;;;;;;;14.70;92.04;100519.41;5037012;28;20277;-77
2024/04/06 00:54:59;;;;;;;1.00;0.87;;;;;;;14.66;92.11;100520.66;5034027;28;20207;-78
2024/04/06 00:57:26;;;;;;;1.13;0.80;;;;;;;14.64;92.60;100522.63;5036544;28;20206;-78
2024/04/06 00:59:52;;;;;;;2.57;1.00;;;;;;;14.63;92.60;100518.22;5043881;28;20250;-79
2024/04/06 01:02:21;;;;;;;2.13;0.90;;;;;;;14.62;92.65;100522.75;5035865;28;20232;-79
2024/04/06 01:04:49;;;;;;;2.50;0.93;;;;;;;14.59;92.90;100522.97;5046854;28;20266;-80
2024/04/06 01:07:16;;;;;;;1.73;0.83;;;;;;;14.64;92.70;100514.56;5035136;28;20205;-79
2024/04/06 01:09:43;;;;;;;1.77;1.00;;;;;;;14.59;92.94;100514.94;5042589;28;20936;-80
2024/04/06 01:12:10;;;;;;;2.33;0.80;;;;;;;14.62;92.58;100511.16;5040116;28;20225;-79
2024/04/06 01:14:36;;;;;;;1.23;0.77;;;;;;;14.56;92.82;100518.72;5040621;28;20226;-79
2024/04/06 01:17:03;;;;;;;2.73;1.37;;;;;;;14.58;93.09;100519.44;5040495;28;20199;-78
2024/04/06 01:19:28;;;;;;;1.60;0.90;;;;;;;14.53;93.24;100524.31;5037392;28;20202;-79
2024/04/06 01:21:55;;;;;;;1.83;1.37;;;;;;;14.50;93.40;100527.28;5034444;28;20215;-79
2024/04/06 01:24:25;;;;;;;3.47;1.20;;;;;;;14.49;93.64;100528.25;5041993;28;20248;-79
2024/04/06 01:26:54;;;;;;;3.03;1.17;;;;;;;14.50;93.40;100524.59;5043648;28;20232;-79
2024/04/06 01:29:21;;;;;;;2.37;0.90;;;;;;;14.47;93.52;100526.69;5034797;28;20277;-79
2024/04/06 01:31:50;;;;;;;2.37;1.33;;;;;;;14.45;93.92;100531.31;5039487;28;20257;-79
2024/04/06 01:34:20;;;;;;;0.80;0.77;;;;;;;14.43;94.08;100519.84;5034707;28;20574;-79
2024/04/06 01:36:47;;;;;;;2.10;1.00;;;;;;;14.44;94.02;100529.59;5037234;28;20206;-79
2024/04/06 01:39:12;;;;;;;2.10;0.93;;;;;;;14.39;94.22;100521.91;5037965;28;20234;-80
2024/04/06 01:41:45;;;;;;;3.70;1.20;;;;;;;14.40;94.34;100525.44;5036608;28;20222;-79
2024/04/06 01:44:11;;;;;;;1.83;1.13;;;;;;;14.39;94.43;100521.91;5031306;28;20583;-79
2024/04/06 01:46:37;;;;;;;1.27;0.97;;;;;;;14.39;94.55;100526.41;5033217;28;20214;-79
2024/04/06 01:49:03;;;;;;;1.63;0.70;;;;;;;14.38;94.68;100520.19;5036958;28;20663;-78
2024/04/06 01:51:30;;;;;;;2.93;1.10;;;;;;;14.37;94.98;100526.53;5039186;28;20226;-79
2024/04/06 01:53:56;;;;;;;2.03;1.30;;;;;;;14.37;94.52;100520.31;5033873;28;20235;-79
2024/04/06 01:56:22;;;;;;;1.90;0.97;;;;;;;14.34;94.75;100520.56;5033161;28;20222;-79
2024/04/06 01:58:49;;;;;;;2.53;1.07;;;;;;;14.34;95.32;100524.09;5036875;28;20237;-80
2024/04/06 02:01:16;;;;;;;2.77;1.00;;;;;;;14.31;95.07;100524.34;5035650;28;20227;-80
2024/04/06 02:03:42;;;;;;;2.53;1.03;;;;;;;14.30;95.37;100528.00;5035250;28;20207;-79
2024/04/06 02:06:09;;;;;;;2.47;0.90;;;;;;;14.29;95.49;100515.59;5037292;28;20293;-79
2024/04/06 02:08:35;;;;;;;1.70;0.80;;;;;;;14.28;95.76;100524.59;5043270;28;20202;-79
2024/04/06 02:11:05;;;;;;;2.27;1.00;;;;;;;14.27;95.76;100533.59;5040087;28;20798;-79
2024/04/06 02:13:32;;;;;;;1.00;0.90;;;;;;;14.25;96.02;100546.28;5035884;28;20229;-79
2024/04/06 02:16:00;;;;;;;2.23;1.10;;;;;;;14.21;96.65;100552.84;5039959;28;20272;-79
2024/04/06 02:18:26;;;;;;;1.93;0.90;;;;;;;14.21;96.84;100550.16;5038267;28;20242;-78
2024/04/06 02:20:53;;;;;;;0.70;0.70;;;;;;;14.19;96.86;100557.47;5043434;28;20233;-78
2024/04/06 02:23:19;;;;;;;1.47;1.00;;;;;;;14.16;96.93;100555.88;5039128;28;20782;-79
2024/04/06 02:25:46;;;;;;;2.87;1.70;;;;;;;14.13;97.24;100557.97;5037694;28;20231;-78
2024/04/06 02:28:12;;;;;;;1.20;0.90;;;;;;;14.11;97.46;100560.78;5042414;28;20205;-79
2024/04/06 02:30:38;;;;;;;1.77;0.97;;;;;;;14.08;97.21;100565.50;5037810;28;20862;-79
2024/04/06 02:33:07;;;;;;;2.17;1.00;;;;;;;14.06;97.42;100567.47;5039695;28;20620;-79
2024/04/06 02:35:33;;;;;;;1.43;1.07;;;;;;;14.03;98.13;100557.84;5036527;28;20229;-78
2024/04/06 02:37:59;;;;;;;1.33;0.90;;;;;;;14.00;97.92;100562.56;5036406;28;20233;-79
2024/04/06 02:40:25;;;;;;;2.60;1.00;;;;;;;13.98;98.38;100567.19;5041742;28;20230;-79
2024/04/06 02:42:51;;;;;;;1.23;0.93;;;;;;;13.95;98.10;100567.47;5042648;28;20233;-78
2024/04/06 02:45:18;;;;;;;2.03;0.87;;;;;;;13.92;98.52;100562.34;5040766;28;20313;-79
2024/04/06 02:47:44;;;;;;;2.40;0.97;;;;;;;13.87;98.91;100560.88;5040393;28;20513;-80
2024/04/06 02:50:12;;;;;;;2.07;0.90;;;;;;;13.86;98.67;100539.56;5036838;28;20297;-80
2024/04/06 02:52:38;;;;;;;3.67;1.07;;;;;;;13.83;98.81;100550.53;5033747;28;20223;-80
2024/04/06 02:55:06;;;;;;;2.67;1.00;;;;;;;13.78;99.35;100556.25;5032869;28;20301;-79
2024/04/06 02:57:32;;;;;;;2.00;1.07;;;;;;;13.73;98.87;100561.09;5030374;28;20210;-81
2024/04/06 02:59:59;;;;;;;3.03;1.30;;;;;;;13.72;99.48;100563.91;5040565;28;20231;-79
2024/04/06 03:02:25;;;;;;;2.40;1.10;;;;;;;13.66;99.37;100559.88;5035847;28;20222;-79
2024/04/06 03:04:52;;;;;;;0.80;0.70;;;;;;;13.62;99.60;100555.72;5040505;28;20210;-79
2024/04/06 03:07:19;;;;;;;1.90;0.97;;;;;;;13.60;100.00;100563.03;5037534;28;20787;-79
2024/04/06 03:09:46;;;;;;;2.90;0.90;;;;;;;13.57;100.00;100560.59;5034257;28;20222;-80
2024/04/06 03:12:12;;;;;;;1.77;0.90;;;;;;;13.53;100.00;100562.66;5035439;28;20596;-80
2024/04/06 03:14:38;;;;;;;2.67;1.10;;;;;;;13.53;100.00;100570.66;5040356;28;20220;-81
2024/04/06 03:17:04;;;;;;;1.50;0.87;;;;;;;13.52;100.00;100573.47;5033896;28;20813;-80
2024/04/06 03:19:31;;;;;;;2.30;0.93;;;;;;;13.49;100.00;100568.34;5037043;28;20213;-81
2024/04/06 03:21:56;;;;;;;2.13;1.17;;;;;;;13.46;100.00;100579.28;5037570;28;20290;-80
2024/04/06 03:24:24;;;;;;;2.40;0.90;;;;;;;13.44;100.00;100581.22;5036227;28;20237;-80
2024/04/06 03:26:50;;;;;;;1.60;1.00;;;;;;;13.42;100.00;100581.34;5031668;28;20703;-79
2024/04/06 03:29:17;;;;;;;1.73;0.80;;;;;;;13.41;100.00;100568.94;5034105;28;20235;-80
2024/04/06 03:31:44;;;;;;;1.30;1.20;;;;;;;13.41;100.00;100571.63;5036537;28;20776;-80
2024/04/06 03:34:11;;;;;;;2.30;0.83;;;;;;;13.41;100.00;100570.78;5037768;28;20206;-80
2024/04/06 03:36:37;;;;;;;4.67;1.90;;;;;;;13.40;100.00;100569.06;5037232;28;20233;-80
2024/04/06 03:39:04;;;;;;;3.60;1.00;;;;;;;13.37;100.00;100566.63;5036907;28;20654;-80
2024/04/06 03:41:31;;;;;;;1.30;0.93;;;;;;;13.36;100.00;100575.59;5036759;28;20613;-80
2024/04/06 03:43:57;;;;;;;2.13;1.10;;;;;;;13.32;100.00;100566.09;5037777;28;20462;-80
2024/04/06 03:46:29;;;;;;;2.63;1.00;;;;;;;13.29;100.00;100560.97;5037396;28;20238;-80
2024/04/06 03:48:56;;;;;;;2.40;1.10;;;;;;;13.27;100.00;100568.25;5034239;28;20711;-80
2024/04/06 03:51:22;;;;;;;0.87;0.77;;;;;;;13.23;100.00;100561.47;5035706;28;20252;-80
2024/04/06 03:53:51;;;;;;;3.23;0.97;;;;;;;13.22;100.00;100565.09;5036190;28;20213;-80
2024/04/06 03:56:17;;;;;;;2.70;1.10;;;;;;;13.20;100.00;100576.78;5035480;28;20205;-79
2024/04/06 03:58:45;;;;;;;1.80;0.70;;;;;;;13.19;100.00;100580.41;5035191;28;20202;-80
2024/04/06 04:01:10;;;;;;;1.20;0.90;;;;;;;13.21;100.00;100580.31;5027048;28;20231;-79
2024/04/06 04:03:37;;;;;;;2.37;1.03;;;;;;;13.22;100.00;100583.84;5031530;28;20209;-80
2024/04/06 04:06:04;;;;;;;2.10;1.10;;;;;;;13.22;100.00;100586.50;5034274;28;20211;-80
2024/04/06 04:08:31;;;;;;;1.33;1.00;;;;;;;13.22;100.00;100583.84;5034841;28;20229;-80
2024/04/06 04:10:56;;;;;;;7.10;1.70;;;;;;;13.20;100.00;100595.50;5034461;28;20702;-80
2024/04/06 04:13:24;;;;;;;1.83;1.17;;;;;;;13.17;100.00;100584.16;5037354;28;20202;-80
2024/04/06 04:15:51;;;;;;;1.47;1.00;;;;;;;13.13;100.00;100594.19;5034142;28;20210;-80
2024/04/06 04:18:18;;;;;;;2.37;1.17;;;;;;;13.13;100.00;100585.31;5033609;28;20678;-80
2024/04/06 04:20:43;;;;;;;1.63;1.07;;;;;;;13.10;100.00;100582.88;5033051;28;20710;-79
2024/04/06 04:23:11;;;;;;;2.47;0.93;;;;;;;13.08;100.00;100588.34;5036851;28;20213;-80
2024/04/06 04:25:37;;;;;;;2.33;0.90;;;;;;;13.07;100.00;100592.00;5034668;28;20201;-79
2024/04/06 04:28:04;;;;;;;1.43;1.20;;;;;;;13.06;100.00;100581.44;5036790;28;20210;-81
2024/04/06 04:30:30;;;;;;;1.00;0.80;;;;;;;13.07;100.00;100578.63;5028491;28;20255;-79
2024/04/06 04:32:58;;;;;;;2.60;1.20;;;;;;;13.08;100.00;100580.31;5034953;28;20280;-80
2024/04/06 04:35:24;;;;;;;2.53;0.97;;;;;;;13.08;100.00;100564.28;5033389;28;20233;-80
2024/04/06 04:37:51;;;;;;;1.67;0.90;;;;;;;13.08;100.00;100566.94;5031282;28;20807;-79
2024/04/06 04:40:17;;;;;;;1.27;0.83;;;;;;;13.06;100.00;100558.22;5030615;28;20255;-80
2024/04/06 04:42:43;;;;;;;1.73;1.03;;;;;;;13.06;100.00;100560.88;5034583;28;20230;-79
2024/04/06 04:45:10;;;;;;;1.80;1.00;;;;;;;13.06;100.00;100550.19;5034163;28;20237;-79
2024/04/06 04:47:37;;;;;;;4.10;1.30;;;;;;;13.05;100.00;100553.84;5036642;28;20195;-80
2024/04/06 04:50:06;;;;;;;1.20;0.90;;;;;;;13.04;100.00;100538.75;5034128;28;20321;-79
2024/04/06 04:52:32;;;;;;;1.73;1.10;;;;;;;13.04;100.00;100551.28;5032128;28;20237;-79
2024/04/06 04:54:58;;;;;;;1.40;1.00;;;;;;;13.04;100.00;100562.81;5032284;28;20226;-79
2024/04/06 04:57:25;;;;;;;1.13;0.73;;;;;;;13.04;100.00;100562.81;5034303;28;20206;-80
2024/04/06 04:59:50;;;;;;;1.70;1.00;;;;;;;13.07;100.00;100559.06;5035341;28;20236;-79
2024/04/06 05:02:17;;;;;;;2.23;0.90;;;;;;;13.07;100.00;100557.25;5038553;28;20238;-81
2024/04/06 05:04:43;;;;;;;0.90;0.70;;;;;;;13.07;100.00;100565.28;5043258;28;20222;-81
2024/04/06 05:07:11;;;;;;;1.97;1.10;;;;;;;13.10;100.00;100566.84;5042019;28;20248;-80
2024/04/06 05:09:37;;;;;;;1.93;0.70;;;;;;;13.08;100.00;100569.63;5041737;28;20245;-80
2024/04/06 05:12:04;;;;;;;2.43;0.83;;;;;;;13.12;100.00;100559.56;5038052;28;20608;-80
2024/04/06 05:14:29;;;;;;;1.80;0.83;;;;;;;13.16;100.00;100569.09;5048504;28;20669;-80
2024/04/06 05:16:56;;;;;;;1.67;1.00;;;;;;;13.17;100.00;100568.13;5038877;28;20213;-79
2024/04/06 05:19:22;;;;;;;1.27;0.87;;;;;;;13.22;100.00;100581.16;5051261;28;20209;-80
2024/04/06 05:21:48;;;;;;;3.63;1.20;;;;;;;13.23;100.00;100581.03;5047098;28;20204;-80
2024/04/06 05:24:15;;;;;;;2.27;0.90;;;;;;;13.24;100.00;100581.91;5045590;28;20207;-81
2024/04/06 05:27:03;;;;;;;2.00;0.97;;;;;;;13.28;100.00;100581.53;5037915;28;20213;-82
2024/04/06 05:29:29;;;;;;;2.07;1.00;;;;;;;13.32;100.00;100574.97;5046017;28;20209;-81
2024/04/06 05:31:57;;;;;;;1.30;0.90;;;;;;;13.34;100.00;100577.53;5041343;28;20229;-82
2024/04/06 05:34:22;;;;;;;1.97;1.00;;;;;;;13.38;100.00;100584.38;5047402;28;20217;-82
2024/04/06 05:36:50;;;;;;;2.60;0.90;;;;;;;13.41;100.00;100586.81;5039657;28;20200;-82
2024/04/06 05:39:17;;;;;;;1.80;1.10;;;;;;;13.42;100.00;100588.53;5045435;28;20210;-81
2024/04/06 05:41:43;;;;;;;2.10;0.80;;;;;;;13.41;100.00;100584.16;5048037;28;20222;-81
2024/04/06 05:44:09;;;;;;;1.93;1.20;;;;;;;13.42;100.00;100588.53;5046146;28;20732;-81
2024/04/06 05:46:36;;;;;;;2.00;1.07;;;;;;;13.41;100.00;100585.00;5047081;28;20201;-82
2024/04/06 05:49:02;;;;;;;2.60;1.20;;;;;;;13.40;100.00;100591.31;5042333;28;20210;-82
2024/04/06 05:51:29;;;;;;;2.47;0.90;;;;;;;13.41;100.00;100603.72;5039508;28;20233;-81
2024/04/06 05:53:55;;;;;;;2.20;1.30;;;;;;;13.39;100.00;100615.50;5047764;28;20241;-81
2024/04/06 05:56:23;;;;;;;5.20;1.50;;;;;;;13.40;100.00;100634.13;5042645;28;20206;-81
2024/04/06 05:58:49;;;;;;;1.47;1.00;;;;;;;13.40;100.00;100620.75;5046430;28;20233;-82
2024/04/06 06:01:16;;;;;;;2.93;1.10;;;;;;;13.40;100.00;100625.25;5043090;28;20231;-82
2024/04/06 06:03:42;;;;;;;1.90;0.90;;;;;;;13.40;100.00;100631.44;5044334;28;20229;-82
2024/04/06 06:06:09;;;;;;;2.97;1.00;;;;;;;13.41;100.00;100634.97;5045046;28;20206;-82
2024/04/06 06:08:34;;;;;;;1.97;1.27;;;;;;;13.43;100.00;100639.25;5047509;28;20198;-81
2024/04/06 06:11:02;;;;;;;2.33;1.37;;;;;;;13.46;100.00;100651.50;5041374;28;20234;-81
2024/04/06 06:13:29;;;;;;;2.50;1.30;;;;;;;13.52;100.00;100648.38;5038247;28;20267;-81
2024/04/06 06:15:56;;;;;;;1.77;1.10;;;;;;;13.58;100.00;100650.59;5038279;28;20214;-81
2024/04/06 06:18:21;;;;;;;2.87;1.10;;;;;;;13.66;100.00;100648.19;5043473;28;20214;-81
2024/04/06 06:20:48;;;;;;;3.10;0.97;;;;;;;13.74;100.00;100645.78;5042087;28;20324;-81
2024/04/06 06:23:14;;;;;;;2.97;1.07;;;;;;;13.83;100.00;100661.13;5046520;28;20222;-81
2024/04/06 06:25:40;;;;;;;1.83;1.13;;;;;;;13.90;100.00;100654.34;5041664;28;20230;-81
2024/04/06 06:28:06;;;;;;;1.10;0.90;;;;;;;14.03;100.00;100661.41;5033570;28;20236;-81
2024/04/06 06:30:34;;;;;;;1.50;1.40;;;;;;;14.12;100.00;100666.94;5033504;28;20226;-81
2024/04/06 06:32:59;;;;;;;3.23;0.87;;;;;;;14.21;100.00;100662.66;5043108;28;20290;-81
2024/04/06 06:35:26;;;;;;;0.90;0.70;;;;;;;14.33;100.00;100667.06;5037064;28;20642;-81
2024/04/06 06:37:52;;;;;;;1.63;0.73;;;;;;;14.44;100.00;100668.94;5042096;28;20279;-82
2024/04/06 06:40:19;;;;;;;1.37;0.70;;;;;;;14.55;100.00;100660.88;5042795;28;20390;-82
2024/04/06 06:42:45;;;;;;;2.20;0.80;;;;;;;14.67;100.00;100656.38;5041059;28;20255;-82
2024/04/06 06:45:11;;;;;;;1.03;0.90;;;;;;;14.79;99.33;100656.25;5044580;28;20206;-82
2024/04/06 06:47:38;;;;;;;1.67;0.87;;;;;;;14.89;99.83;100643.78;5043253;28;20241;-81
2024/04/06 06:50:09;;;;;;;0.83;0.60;;;;;;;15.01;99.61;100652.69;5041454;28;20220;-82
2024/04/06 06:52:37;;;;;;;1.33;0.70;;;;;;;15.15;99.22;100644.34;5039311;28;20826;-81
2024/04/06 06:55:05;;;;;;;0.60;0.50;;;;;;;15.29;96.90;100652.09;5044025;28;20253;-81
2024/04/06 06:57:30;;;;;;;2.23;0.67;;;;;;;15.42;95.80;100641.19;5039952;28;20216;-81
2024/04/06 06:59:57;;;;;;;2.73;0.53;;;;;;;15.55;94.82;100647.28;5040389;28;20228;-81
2024/04/06 07:02:26;;;;;;;0.73;0.60;;;;;;;15.69;92.23;100654.16;5036137;28;20206;-81
2024/04/06 07:04:54;;;;;;;0.70;0.50;;;;;;;15.82;91.14;100653.97;5043892;28;20312;-81
2024/04/06 07:07:20;;;;;;;0.50;0.47;;;;;;;15.91;91.04;100653.19;5040865;28;20272;-81
2024/04/06 07:09:46;;;;;;;1.47;0.50;;;;;;;16.01;89.51;100650.56;5043451;28;20252;-81
2024/04/06 07:12:12;;;;;;;1.90;0.80;;;;;;;16.06;89.20;100651.03;5037408;28;20414;-81
2024/04/06 07:14:40;;;;;;;1.47;0.60;;;;;;;16.09;89.13;100638.19;5036331;28;20251;-81
2024/04/06 07:17:12;;;;;;;2.03;0.50;;;;;;;16.14;87.57;100643.13;5040025;28;20225;-82
2024/04/06 07:19:39;;;;;;;1.53;0.60;;;;;;;16.17;87.53;100640.19;5048258;28;20240;-82
2024/04/06 07:22:06;;;;;;;1.13;0.67;;;;;;;16.22;87.92;100635.28;5042935;28;20666;-82
2024/04/06 07:24:32;;;;;;;1.63;0.50;;;;;;;16.29;87.71;100644.53;5034614;28;20200;-81
2024/04/06 07:26:58;;;;;;;0.50;0.40;;;;;;;16.38;86.80;100641.00;5045040;28;20226;-81
2024/04/06 07:29:25;;;;;;;0.70;0.40;;;;;;;16.45;86.32;100641.34;5038267;28;20213;-81
2024/04/06 07:31:50;;;;;;;1.27;0.80;;;;;;;16.58;85.71;100626.66;5043500;28;20706;-81
2024/04/06 07:34:18;;;;;;;0.90;0.67;;;;;;;16.70;86.30;100629.28;5044185;28;20207;-82
2024/04/06 07:36:43;;;;;;;0.70;0.47;;;;;;;16.85;85.11;100619.81;5044906;28;20676;-81
2024/04/06 07:39:11;;;;;;;1.07;0.40;;;;;;;16.98;84.23;100623.97;5037660;28;20208;-81
2024/04/06 07:41:37;;;;;;;0.67;0.50;;;;;;;17.09;82.76;100619.47;5037212;28;20245;-81
2024/04/06 07:44:04;;;;;;;0.87;0.50;;;;;;;17.18;83.41;100616.78;5039863;28;20235;-82
2024/04/06 07:46:29;;;;;;;0.97;0.47;;;;;;;17.30;81.74;100629.13;5042251;28;20234;-81
2024/04/06 07:48:58;;;;;;;1.07;0.77;;;;;;;17.40;81.07;100625.56;5038595;28;20605;-81
2024/04/06 07:51:24;;;;;;;0.90;0.50;;;;;;;17.49;79.95;100625.59;5037921;28;20244;-81
2024/04/06 07:56:50;;;;;;;1.37;0.40;;;;;;;17.67;79.98;100618.50;4974665;28;20246;-81
2024/04/06 07:59:16;;;;;;;0.87;0.50;;;;;;;17.74;79.96;100631.38;4978861;28;20211;-80
2024/04/06 08:01:43;;;;;;;0.90;0.40;;;;;;;17.82;79.93;100631.53;5011470;28;20315;-80
2024/04/06 08:04:09;;;;;;;0.83;0.50;;;;;;;17.88;79.36;100623.75;5037435;28;20291;-80
2024/04/06 08:06:39;;;;;;;0.97;0.60;;;;;;;17.98;78.37;100624.56;5038625;28;20204;-81
2024/04/06 08:09:08;;;;;;;1.57;0.60;;;;;;;18.07;78.78;100622.84;5035399;28;20208;-80
2024/04/06 08:11:35;;;;;;;6.87;1.63;;;;;;;18.13;78.74;100611.47;5036057;28;20297;-80
2024/04/06 08:14:02;;;;;;;8.63;1.40;;;;;;;18.21;78.32;100613.44;5035489;28;20246;-81
2024/04/06 08:16:29;;;;;;;5.50;1.13;;;;;;;18.24;76.87;100613.16;5037172;28;20205;-81
2024/04/06 08:18:54;;;;;;;1.00;0.40;;;;;;;18.29;77.10;100605.44;5039212;28;20244;-79
2024/04/06 08:21:24;;;;;;;2.23;0.53;;;;;;;18.37;77.12;100602.88;5041317;28;20234;-79
2024/04/06 08:23:49;;;;;;;0.97;0.40;;;;;;;18.52;77.51;100597.81;5040424;28;20223;-81
2024/04/06 08:26:16;;;;;;;2.47;0.60;;;;;;;18.66;75.16;100600.91;5038726;28;20221;-79
2024/04/06 08:28:42;;;;;;;2.20;0.57;;;;;;;18.74;74.67;100600.16;5040931;28;20209;-80
2024/04/06 08:31:09;;;;;;;0.87;0.67;;;;;;;18.80;75.03;100604.13;5039827;28;20242;-80
2024/04/06 08:33:35;;;;;;;1.83;0.50;;;;;;;18.85;75.32;100596.41;5037261;28;20227;-80
2024/04/06 08:36:03;;;;;;;2.03;0.50;;;;;;;18.89;73.22;100592.41;5036924;28;20215;-78
2024/04/06 08:38:29;;;;;;;0.87;0.73;;;;;;;18.92;72.56;100584.00;5027159;28;20715;-78
2024/04/06 08:40:58;;;;;;;2.07;0.70;;;;;;;18.91;72.07;100585.00;5028606;28;20232;-78
2024/04/06 08:43:31;;;;;;;1.10;0.70;;;;;;;18.93;72.75;100583.84;5032483;28;20243;-78
2024/04/06 08:45:58;;;;;;;2.17;0.70;;;;;;;19.01;72.18;100580.38;5032524;28;20202;-77
2024/04/06 08:48:34;;;;;;;1.80;0.50;;;;;;;19.10;71.94;100579.47;5032738;28;20247;-78
2024/04/06 08:51:04;;;;;;;1.30;1.00;;;;;;;19.16;72.22;100584.25;5034761;28;20228;-77
2024/04/06 08:53:30;;;;;;;0.80;0.60;;;;;;;19.25;72.22;100577.94;5035594;28;20272;-79
2024/04/06 08:56:00;;;;;;;2.00;1.00;;;;;;;19.28;71.54;100582.19;5035400;28;20212;-78
2024/04/06 08:58:26;;;;;;;9.40;1.33;;;;;;;19.33;71.09;100585.25;5035114;28;20196;-78
2024/04/06 09:00:59;;;;;;;0.77;0.57;;;;;;;19.39;69.46;100588.19;5035224;28;20230;-78
2024/04/06 09:03:25;;;;;;;1.50;1.00;;;;;;;19.38;68.82;100578.38;5034466;28;20281;-78
2024/04/06 09:05:54;;;;;;;1.17;0.60;;;;;;;19.37;69.00;100579.38;5035090;28;20224;-78
2024/04/06 09:08:20;;;;;;;1.40;0.70;;;;;;;19.40;68.47;100568.28;5034318;28;20271;-78
2024/04/06 09:10:52;;;;;;;1.63;0.73;;;;;;;19.37;69.00;100565.88;5033521;28;20594;-79
2024/04/06 09:13:18;;;;;;;3.25;1.10;;;;;;;19.36;69.22;100560.63;5033443;28;20225;-79
2024/04/06 09:15:45;;;;;;;1.63;0.80;;;;;;;19.37;69.64;100581.22;5034588;28;20243;-80
2024/04/06 09:18:11;;;;;;;1.80;0.63;;;;;;;19.46;69.37;100584.88;5033429;28;20213;-80
2024/04/06 09:20:37;;;;;;;1.97;0.60;;;;;;;19.55;67.80;100583.94;5033651;28;20324;-80
2024/04/06 09:23:04;;;;;;;1.03;0.60;;;;;;;19.68;69.00;100581.72;5033944;28;20240;-80
2024/04/06 09:25:34;;;;;;;1.60;0.70;;;;;;;19.82;69.32;100580.28;5034116;28;20811;-80
2024/04/06 09:28:03;;;;;;;1.30;1.10;;;;;;;20.00;70.13;100583.78;5033757;28;20237;-79
2024/04/06 09:30:35;;;;;;;1.13;0.77;;;;;;;20.14;69.02;100576.94;5033024;28;20232;-79
2024/04/06 09:33:03;;;;;;;2.00;0.77;;;;;;;20.26;67.94;100567.50;5033172;28;20749;-79
2024/04/06 09:35:46;;;;;;;2.33;0.85;;;;;;;20.38;66.68;100579.81;5033660;28;20591;-79
2024/04/06 09:38:18;;;;;;;1.38;0.60;;;;;;;20.48;67.16;100572.41;5033141;28;20292;-79
2024/04/06 09:40:44;;;;;;;4.57;0.95;;;;;;;20.62;67.46;100574.47;5031396;28;20293;-82
2024/04/06 09:43:12;;;;;;;1.00;0.60;;;;;;;20.75;65.19;100564.06;5022297;28;20701;-82
2024/04/06 09:45:38;;;;;;;1.55;0.90;;;;;;;20.84;64.60;100556.78;5026983;28;20232;-83
2024/04/06 09:48:07;;;;;;;1.00;0.60;;;;;;;20.90;63.78;100552.56;5033761;28;20202;-83
2024/04/06 09:50:36;;;;;;;1.95;1.02;;;;;;;21.02;64.18;100543.97;5035334;28;20438;-79
2024/04/06 09:53:04;;;;;;;4.28;1.00;;;;;;;21.11;63.56;100542.97;5034473;28;20271;-79
2024/04/06 09:55:32;;;;;;;3.15;1.17;;;;;;;21.27;63.96;100544.03;5026780;28;20210;-79
2024/04/06 09:57:59;;;;;;;1.40;0.80;;;;;;;21.39;63.53;100543.50;5025191;28;20632;-82
2024/04/06 10:00:27;;;;;;;2.05;0.70;;;;;;;21.48;60.62;100549.78;5028702;28;20260;-82
2024/04/06 10:02:55;;;;;;;2.25;0.93;;;;;;;21.54;60.53;100542.81;5029346;28;20479;-82
2024/04/06 10:05:20;;;;;;;0.82;0.60;;;;;;;21.66;59.77;100542.31;5029376;28;20206;-79
2024/04/06 10:07:49;;;;;;;1.23;0.70;;;;;;;21.76;59.53;100550.25;5027433;28;20244;-79
2024/04/06 10:10:15;;;;;;;0.90;0.75;;;;;;;21.87;59.00;100547.19;5022870;28;20229;-78
2024/04/06 10:12:45;;;;;;;2.15;0.88;;;;;;;21.97;58.28;100557.84;5030505;28;20405;-78
2024/04/06 10:15:11;;;;;;;1.00;0.80;;;;;;;22.02;58.31;100542.78;5025218;28;20240;-79
2024/04/06 10:17:48;;;;;;;0.98;0.75;;;;;;;22.12;58.20;100548.84;5026984;28;20681;-77
2024/04/06 10:20:16;;;;;;;2.40;1.05;;;;;;;22.24;57.52;100533.03;5023125;28;20257;-77
2024/04/06 10:22:54;;;;;;;2.28;1.05;;;;;;;22.31;56.54;100539.47;5023511;28;20199;-77
2024/04/06 10:25:26;;;;;;;1.58;0.80;;;;;;;22.38;56.33;100532.31;5026897;28;20289;-77
2024/04/06 10:28:01;;;;;;;1.40;0.70;;;;;;;22.52;55.36;100539.72;5025162;28;20213;-77
2024/04/06 10:30:27;;;;;;;2.47;1.10;;;;;;;22.56;55.76;100537.50;5028512;28;20225;-78
2024/04/06 10:32:54;;;;;;;1.63;0.88;;;;;;;22.65;55.17;100539.13;5028871;28;20228;-78
2024/04/06 10:35:19;;;;;;;1.02;0.60;;;;;;;22.75;55.27;100530.78;5033889;28;20210;-79
2024/04/06 10:37:50;;;;;;;1.58;0.80;;;;;;;22.90;55.26;100537.16;5032499;28;20230;-79
2024/04/06 10:40:16;;;;;;;2.22;0.68;;;;;;;22.99;53.97;100533.34;5032052;28;20222;-77
2024/04/06 10:42:42;;;;;;;2.25;0.98;;;;;;;23.06;52.24;100544.34;5033065;28;20281;-77
2024/04/06 10:45:14;;;;;;;2.35;0.77;;;;;;;23.18;52.90;100551.91;5038155;28;20202;-81
2024/04/06 10:47:42;;;;;;;1.48;0.70;;;;;;;23.31;51.99;100545.00;5033217;28;20212;-78
2024/04/06 10:50:08;;;;;;;1.10;0.55;;;;;;;23.37;50.45;100539.69;5033885;28;20232;-78
2024/04/06 10:52:36;;;;;;;2.15;0.80;;;;;;;23.47;51.14;100537.56;5028651;28;20827;-77
2024/04/06 10:55:09;;;;;;;0.88;0.60;;;;;;;23.63;51.90;100533.06;5024678;28;20237;-77
2024/04/06 10:57:38;;;;;;;1.23;0.93;;;;;;;23.74;51.17;100525.28;5029010;28;20208;-77
2024/04/06 11:00:10;;;;;;;1.75;0.70;;;;;;;23.85;50.81;100526.69;5026965;28;20277;-77
2024/04/06 11:02:38;;;;;;;2.08;1.05;;;;;;;23.95;50.40;100526.44;5026717;28;20332;-79
2024/04/06 11:05:04;;;;;;;2.88;1.00;;;;;;;24.01;52.06;100534.66;5024106;28;20248;-77
2024/04/06 11:07:35;;;;;;;1.67;0.90;;;;;;;;;;5028038;28;20205;-77
2024/04/06 11:10:03;;;;;;;1.10;0.70;;;;;;;24.07;48.20;100517.59;5044598;28;20252;-79
2024/04/06 11:12:36;;;;;;;0.98;0.73;;;;;;;24.11;49.49;100520.81;5034692;28;20228;-80
2024/04/06 11:15:07;;;;;;;1.55;0.80;;;;;;;24.11;48.46;100515.34;5028193;28;20667;-80
2024/04/06 11:17:35;;;;;;;1.40;0.98;;;;;;;24.11;48.09;100520.81;5030956;28;20230;-80
2024/04/06 11:20:03;;;;;;;1.42;0.90;;;;;;;24.09;48.13;100515.53;5038621;28;20261;-80
2024/04/06 11:22:30;;;;;;;2.42;0.70;;;;;;;24.05;48.12;100506.06;5035041;28;20202;-80
2024/04/06 11:24:56;;;;;;;1.33;0.80;;;;;;;24.03;46.96;100502.69;5030612;28;20275;-80
2024/04/06 11:27:27;;;;;;;1.88;0.80;;;;;;;24.04;48.81;100504.38;5032303;28;20217;-80